sensor_id;sensor_type;location;lat;lon;timestamp;pressure;altitude;pressure_sealevel;temperature;humidity
46129;BME280;31860;45.186;5.790;2022-10-31T00:02:18;99661.38;;;17.91;79.33
46129;BME280;31860;45.186;5.790;2022-10-31T00:04:44;99657.00;;;17.88;79.08
46129;BME280;31860;45.186;5.790;2022-10-31T00:07:09;99657.94;;;17.86;78.91
46129;BME280;31860;45.186;5.790;2022-10-31T00:09:35;99657.09;;;17.84;79.25
46129;BME280;31860;45.186;5.790;2022-10-31T00:12:03;99651.00;;;17.80;79.44
46129;BME280;31860;45.186;5.790;2022-10-31T00:14:29;99650.16;;;17.78;79.61
46129;BME280;31860;45.186;5.790;2022-10-31T00:16:54;99652.84;;;17.77;79.64
46129;BME280;31860;45.186;5.790;2022-10-31T00:19:20;99655.56;;;17.74;79.68
46129;BME280;31860;45.186;5.790;2022-10-31T00:21:46;99654.66;;;17.75;79.85
46129;BME280;31860;45.186;5.790;2022-10-31T00:24:11;99647.66;;;17.72;80.25
46129;BME280;31860;45.186;5.790;2022-10-31T00:26:37;99654.78;;;17.70;80.39
46129;BME280;31860;45.186;5.790;2022-10-31T00:29:02;99649.44;;;17.72;80.69
46129;BME280;31860;45.186;5.790;2022-10-31T00:31:28;99650.31;;;17.71;80.95
46129;BME280;31860;45.186;5.790;2022-10-31T00:33:54;99652.97;;;17.71;81.16
46129;BME280;31860;45.186;5.790;2022-10-31T00:36:20;99650.31;;;17.71;81.23
46129;BME280;31860;45.186;5.790;2022-10-31T00:38:46;99649.47;;;17.70;81.50
46129;BME280;31860;45.186;5.790;2022-10-31T00:41:14;99644.22;;;17.69;81.57
46129;BME280;31860;45.186;5.790;2022-10-31T00:43:41;99640.72;;;17.68;81.69
46129;BME280;31860;45.186;5.790;2022-10-31T00:46:07;99646.00;;;17.67;81.98
46129;BME280;31860;45.186;5.790;2022-10-31T00:48:32;99637.22;;;17.66;82.09
46129;BME280;31860;45.186;5.790;2022-10-31T00:50:58;99634.59;;;17.65;82.13
46129;BME280;31860;45.186;5.790;2022-10-31T00:53:23;99639.88;;;17.65;82.05
46129;BME280;31860;45.186;5.790;2022-10-31T00:55:49;99637.31;;;17.62;81.65
46129;BME280;31860;45.186;5.790;2022-10-31T00:58:14;99632.97;;;17.59;81.40
46129;BME280;31860;45.186;5.790;2022-10-31T01:00:40;99637.47;;;17.54;81.22
46129;BME280;31860;45.186;5.790;2022-10-31T01:03:05;99641.03;;;17.53;81.03
46129;BME280;31860;45.186;5.790;2022-10-31T01:05:31;99634.91;;;17.51;80.71
46129;BME280;31860;45.186;5.790;2022-10-31T01:07:56;99628.81;;;17.48;80.59
46129;BME280;31860;45.186;5.790;2022-10-31T01:10:22;99637.59;;;17.48;80.59
46129;BME280;31860;45.186;5.790;2022-10-31T01:12:48;99629.69;;;17.47;80.68
46129;BME280;31860;45.186;5.790;2022-10-31T01:15:22;99633.19;;;17.47;80.90
46129;BME280;31860;45.186;5.790;2022-10-31T01:17:48;99638.53;;;17.46;81.61
46129;BME280;31860;45.186;5.790;2022-10-31T01:20:15;99634.09;;;17.46;81.80
46129;BME280;31860;45.186;5.790;2022-10-31T01:22:41;99632.34;;;17.45;82.09
46129;BME280;31860;45.186;5.790;2022-10-31T01:25:08;99635.00;;;17.45;82.05
46129;BME280;31860;45.186;5.790;2022-10-31T01:27:34;99626.19;;;17.45;82.13
46129;BME280;31860;45.186;5.790;2022-10-31T01:29:59;99620.88;;;17.46;82.36
46129;BME280;31860;45.186;5.790;2022-10-31T01:32:25;99617.44;;;17.43;82.52
46129;BME280;31860;45.186;5.790;2022-10-31T01:34:50;99625.31;;;17.44;82.55
46129;BME280;31860;45.186;5.790;2022-10-31T01:37:16;99615.72;;;17.42;82.16
46129;BME280;31860;45.186;5.790;2022-10-31T01:39:41;99617.47;;;17.41;82.24
46129;BME280;31860;45.186;5.790;2022-10-31T01:42:12;99606.03;;;17.41;82.14
46129;BME280;31860;45.186;5.790;2022-10-31T01:47:15;99615.75;;;17.40;81.98
46129;BME280;31860;45.186;5.790;2022-10-31T01:49:49;99611.31;;;17.41;81.92
46129;BME280;31860;45.186;5.790;2022-10-31T01:52:32;99609.59;;;17.40;81.92
46129;BME280;31860;45.186;5.790;2022-10-31T01:55:12;99611.34;;;17.39;82.05
46129;BME280;31860;45.186;5.790;2022-10-31T01:57:40;99606.16;;;17.36;82.46
46129;BME280;31860;45.186;5.790;2022-10-31T02:00:09;99606.09;;;17.38;82.19
46129;BME280;31860;45.186;5.790;2022-10-31T02:02:35;99605.22;;;17.37;82.21
46129;BME280;31860;45.186;5.790;2022-10-31T02:05:04;99611.38;;;17.38;82.09
46129;BME280;31860;45.186;5.790;2022-10-31T02:07:35;99602.59;;;17.37;82.12
46129;BME280;31860;45.186;5.790;2022-10-31T02:10:03;99607.00;;;17.38;82.24
46129;BME280;31860;45.186;5.790;2022-10-31T02:12:30;99602.53;;;17.39;82.34
46129;BME280;31860;45.186;5.790;2022-10-31T02:14:57;99599.06;;;17.37;82.33
46129;BME280;31860;45.186;5.790;2022-10-31T02:17:23;99591.16;;;17.37;82.18
46129;BME280;31860;45.186;5.790;2022-10-31T02:19:56;99588.53;;;17.35;81.93
46129;BME280;31860;45.186;5.790;2022-10-31T02:22:43;99592.97;;;17.33;81.80
46129;BME280;31860;45.186;5.790;2022-10-31T02:31:33;99584.38;;;17.25;82.20
46129;BME280;31860;45.186;5.790;2022-10-31T02:36:52;99585.22;;;17.26;82.40
46129;BME280;31860;45.186;5.790;2022-10-31T02:39:33;99573.81;;;17.25;82.70
46129;BME280;31860;45.186;5.790;2022-10-31T02:44:49;99572.06;;;17.24;82.98
46129;BME280;31860;45.186;5.790;2022-10-31T02:47:17;99576.34;;;17.30;82.24
46129;BME280;31860;45.186;5.790;2022-10-31T02:50:10;99568.38;;;17.31;82.15
46129;BME280;31860;45.186;5.790;2022-10-31T02:52:36;99579.84;;;17.30;82.30
46129;BME280;31860;45.186;5.790;2022-10-31T02:57:48;99585.09;;;17.32;82.34
46129;BME280;31860;45.186;5.790;2022-10-31T03:00:17;99585.09;;;17.32;82.39
46129;BME280;31860;45.186;5.790;2022-10-31T03:08:23;99576.38;;;17.28;81.92
46129;BME280;31860;45.186;5.790;2022-10-31T03:10:56;99581.72;;;17.25;81.81
46129;BME280;31860;45.186;5.790;2022-10-31T03:16:14;99583.53;;;17.22;81.58
46129;BME280;31860;45.186;5.790;2022-10-31T03:18:56;99580.13;;;17.17;81.51
46129;BME280;31860;45.186;5.790;2022-10-31T03:21:28;99581.06;;;17.14;81.54
46129;BME280;31860;45.186;5.790;2022-10-31T03:23:56;99576.78;;;17.08;81.87
46129;BME280;31860;45.186;5.790;2022-10-31T03:26:24;99589.97;;;17.08;81.88
46129;BME280;31860;45.186;5.790;2022-10-31T03:28:54;99583.84;;;17.08;82.06
46129;BME280;31860;45.186;5.790;2022-10-31T03:31:26;99582.09;;;17.07;82.16
46129;BME280;31860;45.186;5.790;2022-10-31T03:33:59;99585.63;;;17.06;82.14
46129;BME280;31860;45.186;5.790;2022-10-31T03:36:27;99589.13;;;17.06;82.61
46129;BME280;31860;45.186;5.790;2022-10-31T03:38:56;99599.69;;;17.06;82.43
46129;BME280;31860;45.186;5.790;2022-10-31T03:41:27;99598.81;;;17.08;82.45
46129;BME280;31860;45.186;5.790;2022-10-31T03:44:00;99595.28;;;17.07;82.34
46129;BME280;31860;45.186;5.790;2022-10-31T03:46:27;99593.53;;;17.08;82.28
46129;BME280;31860;45.186;5.790;2022-10-31T03:48:54;99590.84;;;17.09;82.41
46129;BME280;31860;45.186;5.790;2022-10-31T03:56:55;99590.88;;;17.08;82.33
46129;BME280;31860;45.186;5.790;2022-10-31T04:02:27;99580.44;;;17.01;82.38
46129;BME280;31860;45.186;5.790;2022-10-31T04:04:54;99582.19;;;17.02;82.36
46129;BME280;31860;45.186;5.790;2022-10-31T04:07:21;99581.34;;;16.99;82.49
46129;BME280;31860;45.186;5.790;2022-10-31T04:09:50;99584.91;;;16.98;82.40
46129;BME280;31860;45.186;5.790;2022-10-31T04:12:17;99584.94;;;16.96;82.62
46129;BME280;31860;45.186;5.790;2022-10-31T04:14:46;99578.75;;;16.97;82.58
46129;BME280;31860;45.186;5.790;2022-10-31T04:17:16;99581.44;;;16.96;82.75
46129;BME280;31860;45.186;5.790;2022-10-31T04:19:42;99577.00;;;16.98;82.58
46129;BME280;31860;45.186;5.790;2022-10-31T04:22:08;99581.34;;;16.99;82.94
46129;BME280;31860;45.186;5.790;2022-10-31T04:24:33;99565.53;;;16.99;82.93
46129;BME280;31860;45.186;5.790;2022-10-31T04:26:58;99552.31;;;16.99;82.81
46129;BME280;31860;45.186;5.790;2022-10-31T04:29:24;99569.13;;;16.96;82.88
46129;BME280;31860;45.186;5.790;2022-10-31T04:31:49;99563.75;;;16.99;83.09
46129;BME280;31860;45.186;5.790;2022-10-31T04:34:15;99570.84;;;16.97;83.23
46129;BME280;31860;45.186;5.790;2022-10-31T04:36:40;99555.03;;;16.96;83.17
46129;BME280;31860;45.186;5.790;2022-10-31T04:39:06;99562.03;;;16.97;83.38
46129;BME280;31860;45.186;5.790;2022-10-31T04:41:31;99556.75;;;16.97;83.35
46129;BME280;31860;45.186;5.790;2022-10-31T04:43:56;99567.41;;;16.94;83.38
46129;BME280;31860;45.186;5.790;2022-10-31T04:46:22;99567.44;;;16.92;83.26
46129;BME280;31860;45.186;5.790;2022-10-31T04:48:47;99568.31;;;16.93;83.15
46129;BME280;31860;45.186;5.790;2022-10-31T04:51:13;99568.31;;;16.93;83.21
46129;BME280;31860;45.186;5.790;2022-10-31T04:53:38;99567.44;;;16.92;83.12
46129;BME280;31860;45.186;5.790;2022-10-31T04:56:04;99571.88;;;16.90;83.05
46129;BME280;31860;45.186;5.790;2022-10-31T04:58:29;99571.88;;;16.90;83.15
46129;BME280;31860;45.186;5.790;2022-10-31T05:00:55;99562.22;;;16.88;83.17
46129;BME280;31860;45.186;5.790;2022-10-31T05:03:21;99571.09;;;16.85;83.13
46129;BME280;31860;45.186;5.790;2022-10-31T05:05:47;99569.31;;;16.87;82.79
46129;BME280;31860;45.186;5.790;2022-10-31T05:08:13;99565.81;;;16.85;83.07
46129;BME280;31860;45.186;5.790;2022-10-31T05:10:38;99571.09;;;16.85;82.94
46129;BME280;31860;45.186;5.790;2022-10-31T05:13:04;99571.09;;;16.85;82.86
46129;BME280;31860;45.186;5.790;2022-10-31T05:15:30;99570.25;;;16.83;82.68
46129;BME280;31860;45.186;5.790;2022-10-31T05:17:56;99569.38;;;16.83;83.22
46129;BME280;31860;45.186;5.790;2022-10-31T05:20:25;99572.06;;;16.81;83.08
46129;BME280;31860;45.186;5.790;2022-10-31T05:22:53;99563.25;;;16.81;83.25
46129;BME280;31860;45.186;5.790;2022-10-31T05:25:20;99572.91;;;16.82;83.47
46129;BME280;31860;45.186;5.790;2022-10-31T05:27:48;99563.28;;;16.79;83.56
46129;BME280;31860;45.186;5.790;2022-10-31T05:30:19;99569.47;;;16.77;83.57
46129;BME280;31860;45.186;5.790;2022-10-31T05:32:46;99561.53;;;16.78;83.69
46129;BME280;31860;45.186;5.790;2022-10-31T05:35:14;99567.72;;;16.77;83.21
46129;BME280;31860;45.186;5.790;2022-10-31T05:37:40;99567.75;;;16.76;83.08
46129;BME280;31860;45.186;5.790;2022-10-31T05:40:08;99565.97;;;16.78;82.86
46129;BME280;31860;45.186;5.790;2022-10-31T05:42:35;99577.28;;;16.83;82.27
46129;BME280;31860;45.186;5.790;2022-10-31T05:45:00;99580.81;;;16.83;82.07
46129;BME280;31860;45.186;5.790;2022-10-31T05:47:26;99595.75;;;16.83;82.12
46129;BME280;31860;45.186;5.790;2022-10-31T05:49:51;99596.69;;;16.80;82.47
46129;BME280;31860;45.186;5.790;2022-10-31T05:52:17;99586.19;;;16.77;82.33
46129;BME280;31860;45.186;5.790;2022-10-31T05:54:42;99577.47;;;16.74;82.67
46129;BME280;31860;45.186;5.790;2022-10-31T05:57:08;99581.94;;;16.70;82.55
46129;BME280;31860;45.186;5.790;2022-10-31T05:59:34;99583.69;;;16.70;82.64
46129;BME280;31860;45.186;5.790;2022-10-31T06:01:59;99575.81;;;16.68;82.87
46129;BME280;31860;45.186;5.790;2022-10-31T06:04:24;99577.53;;;16.69;83.00
46129;BME280;31860;45.186;5.790;2022-10-31T06:06:50;99588.13;;;16.68;82.80
46129;BME280;31860;45.186;5.790;2022-10-31T06:09:15;99585.53;;;16.66;82.67
46129;BME280;31860;45.186;5.790;2022-10-31T06:11:41;99588.19;;;16.63;82.78
46129;BME280;31860;45.186;5.790;2022-10-31T06:14:06;99583.88;;;16.61;83.01
46129;BME280;31860;45.186;5.790;2022-10-31T06:16:32;99590.06;;;16.58;82.73
46129;BME280;31860;45.186;5.790;2022-10-31T06:18:57;99598.03;;;16.54;82.23
46129;BME280;31860;45.186;5.790;2022-10-31T06:21:23;99591.91;;;16.53;82.30
46129;BME280;31860;45.186;5.790;2022-10-31T06:23:48;99592.84;;;16.51;82.28
46129;BME280;31860;45.186;5.790;2022-10-31T06:26:14;99588.41;;;16.53;82.46
46129;BME280;31860;45.186;5.790;2022-10-31T06:28:39;99587.56;;;16.51;82.46
46129;BME280;31860;45.186;5.790;2022-10-31T06:31:06;99604.28;;;16.50;82.48
46129;BME280;31860;45.186;5.790;2022-10-31T06:33:33;99600.78;;;16.49;82.58
46129;BME280;31860;45.186;5.790;2022-10-31T06:35:59;99607.81;;;16.49;82.54
46129;BME280;31860;45.186;5.790;2022-10-31T06:38:28;99613.13;;;16.46;82.42
46129;BME280;31860;45.186;5.790;2022-10-31T06:40:54;99613.09;;;16.47;82.50
46129;BME280;31860;45.186;5.790;2022-10-31T06:43:20;99610.47;;;16.46;82.25
46129;BME280;31860;45.186;5.790;2022-10-31T06:45:47;99600.81;;;16.45;82.49
46129;BME280;31860;45.186;5.790;2022-10-31T06:48:12;99604.38;;;16.42;82.65
46129;BME280;31860;45.186;5.790;2022-10-31T06:50:38;99597.31;;;16.43;82.87
46129;BME280;31860;45.186;5.790;2022-10-31T06:53:04;99595.53;;;16.45;82.66
46129;BME280;31860;45.186;5.790;2022-10-31T06:55:29;99588.50;;;16.45;83.13
46129;BME280;31860;45.186;5.790;2022-10-31T06:57:56;99590.25;;;16.45;83.88
46129;BME280;31860;45.186;5.790;2022-10-31T07:00:22;99587.59;;;16.46;83.77
46129;BME280;31860;45.186;5.790;2022-10-31T07:03:02;99589.38;;;16.46;83.90
46129;BME280;31860;45.186;5.790;2022-10-31T07:05:29;99585.81;;;16.47;84.20
46129;BME280;31860;45.186;5.790;2022-10-31T07:07:58;99580.53;;;16.51;84.20
46129;BME280;31860;45.186;5.790;2022-10-31T07:10:25;99575.25;;;16.51;84.19
46129;BME280;31860;45.186;5.790;2022-10-31T07:12:59;99579.59;;;16.52;84.59
46129;BME280;31860;45.186;5.790;2022-10-31T07:15:25;99576.94;;;16.54;84.89
46129;BME280;31860;45.186;5.790;2022-10-31T07:17:51;99572.53;;;16.54;84.48
46129;BME280;31860;45.186;5.790;2022-10-31T07:20:16;99573.47;;;16.52;84.11
46129;BME280;31860;45.186;5.790;2022-10-31T07:22:42;99566.38;;;16.55;83.95
46129;BME280;31860;45.186;5.790;2022-10-31T07:25:08;99563.75;;;16.55;83.88
46129;BME280;31860;45.186;5.790;2022-10-31T07:27:37;99563.75;;;16.55;84.01
46129;BME280;31860;45.186;5.790;2022-10-31T07:30:03;99566.38;;;16.54;84.39
46129;BME280;31860;45.186;5.790;2022-10-31T07:32:40;99569.06;;;16.52;84.59
46129;BME280;31860;45.186;5.790;2022-10-31T07:35:14;99565.50;;;16.55;84.46
46129;BME280;31860;45.186;5.790;2022-10-31T07:37:40;99572.50;;;16.57;84.57
46129;BME280;31860;45.186;5.790;2022-10-31T07:40:07;99569.84;;;16.59;84.60
46129;BME280;31860;45.186;5.790;2022-10-31T07:42:40;99566.31;;;16.58;84.39
46129;BME280;31860;45.186;5.790;2022-10-31T07:45:08;99565.44;;;16.58;84.48
46129;BME280;31860;45.186;5.790;2022-10-31T07:47:45;99563.69;;;16.58;84.37
46129;BME280;31860;45.186;5.790;2022-10-31T07:50:13;99562.78;;;16.59;84.26
46129;BME280;31860;45.186;5.790;2022-10-31T07:52:39;99555.63;;;16.66;84.52
46129;BME280;31860;45.186;5.790;2022-10-31T07:55:05;99573.94;;;16.73;84.52
46129;BME280;31860;45.186;5.790;2022-10-31T07:57:31;99572.91;;;16.82;84.73
46129;BME280;31860;45.186;5.790;2022-10-31T07:59:57;99573.59;;;16.91;84.66
46129;BME280;31860;45.186;5.790;2022-10-31T08:02:23;99576.91;;;17.01;84.26
46129;BME280;31860;45.186;5.790;2022-10-31T08:04:49;99570.66;;;17.08;83.70
46129;BME280;31860;45.186;5.790;2022-10-31T08:07:14;99573.13;;;17.16;83.14
46129;BME280;31860;45.186;5.790;2022-10-31T08:09:40;99568.53;;;17.24;82.80
46129;BME280;31860;45.186;5.790;2022-10-31T08:12:05;99571.00;;;17.33;82.94
46129;BME280;31860;45.186;5.790;2022-10-31T08:14:31;99561.13;;;17.41;82.86
46129;BME280;31860;45.186;5.790;2022-10-31T08:16:56;99551.31;;;17.47;82.64
46129;BME280;31860;45.186;5.790;2022-10-31T08:19:22;99556.38;;;17.58;82.39
46129;BME280;31860;45.186;5.790;2022-10-31T08:21:50;99557.06;;;17.67;81.78
46129;BME280;31860;45.186;5.790;2022-10-31T08:24:16;99546.38;;;17.72;81.56
46129;BME280;31860;45.186;5.790;2022-10-31T08:26:42;99552.38;;;17.78;81.48
46129;BME280;31860;45.186;5.790;2022-10-31T08:29:08;99553.19;;;17.82;81.28
46129;BME280;31860;45.186;5.790;2022-10-31T08:31:33;99546.03;;;17.87;81.17
46129;BME280;31860;45.186;5.790;2022-10-31T08:33:59;99541.56;;;17.89;80.66
46129;BME280;31860;45.186;5.790;2022-10-31T08:36:24;99533.47;;;17.95;80.84
46129;BME280;31860;45.186;5.790;2022-10-31T08:38:50;99530.72;;;17.99;81.01
46129;BME280;31860;45.186;5.790;2022-10-31T08:41:16;99524.56;;;17.99;81.33
46129;BME280;31860;45.186;5.790;2022-10-31T08:43:41;99524.47;;;18.04;81.69
46129;BME280;31860;45.186;5.790;2022-10-31T08:46:06;99524.38;;;18.07;81.80
46129;BME280;31860;45.186;5.790;2022-10-31T08:48:32;99519.09;;;18.08;81.44
46129;BME280;31860;45.186;5.790;2022-10-31T08:50:58;99521.72;;;18.08;80.90
46129;BME280;31860;45.186;5.790;2022-10-31T08:53:25;99527.00;;;18.08;80.43
46129;BME280;31860;45.186;5.790;2022-10-31T08:55:53;99519.03;;;18.10;80.21
46129;BME280;31860;45.186;5.790;2022-10-31T08:58:19;99519.88;;;18.12;80.24
46129;BME280;31860;45.186;5.790;2022-10-31T09:00:46;99514.53;;;18.13;79.73
46129;BME280;31860;45.186;5.790;2022-10-31T09:03:15;99524.09;;;18.19;79.83
46129;BME280;31860;45.186;5.790;2022-10-31T09:05:41;99524.88;;;18.22;79.52
46129;BME280;31860;45.186;5.790;2022-10-31T09:08:07;99524.78;;;18.25;79.65
46129;BME280;31860;45.186;5.790;2022-10-31T09:10:34;99526.44;;;18.31;80.13
46129;BME280;31860;45.186;5.790;2022-10-31T09:13:02;99527.16;;;18.36;79.71
46129;BME280;31860;45.186;5.790;2022-10-31T09:15:33;99521.78;;;18.39;78.67
46129;BME280;31860;45.186;5.790;2022-10-31T09:17:59;99513.81;;;18.42;78.84
46129;BME280;31860;45.186;5.790;2022-10-31T09:20:26;99507.56;;;18.44;78.52
46129;BME280;31860;45.186;5.790;2022-10-31T09:22:59;99516.28;;;18.48;78.26
46129;BME280;31860;45.186;5.790;2022-10-31T09:25:26;99522.38;;;18.51;78.29
46129;BME280;31860;45.186;5.790;2022-10-31T09:27:56;99519.75;;;18.51;78.34
46129;BME280;31860;45.186;5.790;2022-10-31T09:30:21;99524.00;;;18.55;77.73
46129;BME280;31860;45.186;5.790;2022-10-31T09:32:47;99517.78;;;18.58;77.63
46129;BME280;31860;45.186;5.790;2022-10-31T09:35:12;99515.09;;;18.59;77.88
46129;BME280;31860;45.186;5.790;2022-10-31T09:37:37;99524.78;;;18.60;77.89
46129;BME280;31860;45.186;5.790;2022-10-31T09:40:03;99522.03;;;18.63;77.81
46129;BME280;31860;45.186;5.790;2022-10-31T09:42:44;99522.88;;;18.65;77.96
46129;BME280;31860;45.186;5.790;2022-10-31T09:45:27;99521.91;;;18.68;78.20
46129;BME280;31860;45.186;5.790;2022-10-31T09:48:19;99526.28;;;18.69;77.83
46129;BME280;31860;45.186;5.790;2022-10-31T09:51:04;99523.53;;;18.73;78.63
46129;BME280;31860;45.186;5.790;2022-10-31T09:53:44;99515.44;;;18.78;78.23
46129;BME280;31860;45.186;5.790;2022-10-31T09:56:18;99511.75;;;18.85;77.55
46129;BME280;31860;45.186;5.790;2022-10-31T09:58:48;99513.28;;;18.92;77.33
46129;BME280;31860;45.186;5.790;2022-10-31T10:06:44;99502.69;;;19.23;75.27
46129;BME280;31860;45.186;5.790;2022-10-31T10:09:11;99497.97;;;19.34;74.78
46129;BME280;31860;45.186;5.790;2022-10-31T10:25:40;99481.13;;;20.16;71.22
46129;BME280;31860;45.186;5.790;2022-10-31T10:28:19;99486.09;;;20.27;70.53
46129;BME280;31860;45.186;5.790;2022-10-31T10:31:03;99474.22;;;20.37;69.21
46129;BME280;31860;45.186;5.790;2022-10-31T10:33:35;99468.59;;;20.46;68.76
46129;BME280;31860;45.186;5.790;2022-10-31T10:36:12;99467.47;;;20.53;68.01
46129;BME280;31860;45.186;5.790;2022-10-31T10:39:04;99468.84;;;20.63;66.87
46129;BME280;31860;45.186;5.790;2022-10-31T10:41:32;99472.22;;;20.68;67.07
46129;BME280;31860;45.186;5.790;2022-10-31T10:43:58;99464.06;;;20.74;65.87
46129;BME280;31860;45.186;5.790;2022-10-31T10:54:29;99469.78;;;20.87;64.71
46129;BME280;31860;45.186;5.790;2022-10-31T10:59:46;99460.94;;;20.86;64.66
46129;BME280;31860;45.186;5.790;2022-10-31T11:02:19;99452.16;;;20.84;64.79
46129;BME280;31860;45.186;5.790;2022-10-31T11:04:50;99463.56;;;20.86;65.25
46129;BME280;31860;45.186;5.790;2022-10-31T11:07:16;99453.91;;;20.85;64.64
46129;BME280;31860;45.186;5.790;2022-10-31T11:09:41;99467.03;;;20.88;64.98
46129;BME280;31860;45.186;5.790;2022-10-31T11:12:19;99455.53;;;20.88;64.33
46129;BME280;31860;45.186;5.790;2022-10-31T11:14:55;99448.41;;;20.90;64.12
46129;BME280;31860;45.186;5.790;2022-10-31T11:17:33;99441.28;;;20.90;63.87
46129;BME280;31860;45.186;5.790;2022-10-31T11:22:36;99427.84;;;20.95;64.04
46129;BME280;31860;45.186;5.790;2022-10-31T11:25:20;99423.22;;;21.00;63.69
46129;BME280;31860;45.186;5.790;2022-10-31T11:27:46;99416.84;;;21.05;63.27
46129;BME280;31860;45.186;5.790;2022-10-31T11:30:14;99421.03;;;21.11;63.12
46129;BME280;31860;45.186;5.790;2022-10-31T11:32:49;99421.50;;;21.22;62.39
46129;BME280;31860;45.186;5.790;2022-10-31T11:35:18;99421.13;;;21.31;62.97
46129;BME280;31860;45.186;5.790;2022-10-31T11:37:46;99397.66;;;21.42;62.35
46129;BME280;31860;45.186;5.790;2022-10-31T11:40:22;99395.47;;;21.51;61.07
46129;BME280;31860;45.186;5.790;2022-10-31T11:42:49;99389.72;;;21.62;60.81
46129;BME280;31860;45.186;5.790;2022-10-31T11:45:26;99394.50;;;21.74;60.18
46129;BME280;31860;45.186;5.790;2022-10-31T11:47:54;99379.88;;;21.86;59.96
46129;BME280;31860;45.186;5.790;2022-10-31T11:50:39;99377.56;;;21.98;59.13
46129;BME280;31860;45.186;5.790;2022-10-31T11:53:32;99371.69;;;22.10;58.74
46129;BME280;31860;45.186;5.790;2022-10-31T11:58:30;99366.09;;;22.36;59.38
46129;BME280;31860;45.186;5.790;2022-10-31T12:00:57;99362.81;;;22.50;59.15
46129;BME280;31860;45.186;5.790;2022-10-31T12:06:00;99351.84;;;22.76;58.07
46129;BME280;31860;45.186;5.790;2022-10-31T12:08:33;99339.63;;;22.91;57.58
46129;BME280;31860;45.186;5.790;2022-10-31T12:11:43;99323.81;;;23.05;55.81
46129;BME280;31860;45.186;5.790;2022-10-31T12:14:36;99320.56;;;23.17;55.81
46129;BME280;31860;45.186;5.790;2022-10-31T12:17:14;99323.88;;;23.22;56.39
46129;BME280;31860;45.186;5.790;2022-10-31T12:22:49;99316.50;;;23.27;55.83
46129;BME280;31860;45.186;5.790;2022-10-31T12:28:07;99302.75;;;23.17;54.37
46129;BME280;31860;45.186;5.790;2022-10-31T12:39:15;99277.72;;;23.38;55.11
46129;BME280;31860;45.186;5.790;2022-10-31T12:46:58;99255.47;;;23.57;54.11
46129;BME280;31860;45.186;5.790;2022-10-31T12:52:54;99254.09;;;23.82;52.21
46129;BME280;31860;45.186;5.790;2022-10-31T12:55:54;99255.44;;;23.91;51.77
46129;BME280;31860;45.186;5.790;2022-10-31T12:58:26;99259.13;;;24.05;52.71
46129;BME280;31860;45.186;5.790;2022-10-31T13:01:06;99248.63;;;24.18;52.10
46129;BME280;31860;45.186;5.790;2022-10-31T13:06:25;99246.94;;;24.32;51.86
46129;BME280;31860;45.186;5.790;2022-10-31T13:08:57;99237.91;;;24.35;51.58
46129;BME280;31860;45.186;5.790;2022-10-31T13:11:30;99236.09;;;24.35;51.05
46129;BME280;31860;45.186;5.790;2022-10-31T13:14:02;99229.69;;;24.38;50.74
46129;BME280;31860;45.186;5.790;2022-10-31T13:16:50;99229.97;;;24.33;49.92
46129;BME280;31860;45.186;5.790;2022-10-31T13:19:20;99224.78;;;24.30;51.21
46129;BME280;31860;45.186;5.790;2022-10-31T13:22:10;99233.31;;;24.21;50.38
46129;BME280;31860;45.186;5.790;2022-10-31T13:24:50;99225.63;;;24.15;51.38
46129;BME280;31860;45.186;5.790;2022-10-31T13:27:26;99231.31;;;24.09;51.57
46129;BME280;31860;45.186;5.790;2022-10-31T13:30:10;99227.09;;;24.05;51.14
46129;BME280;31860;45.186;5.790;2022-10-31T13:32:51;99218.41;;;24.00;51.44
46129;BME280;31860;45.186;5.790;2022-10-31T13:41:20;99207.94;;;23.80;50.67
46129;BME280;31860;45.186;5.790;2022-10-31T13:44:15;99210.25;;;23.71;50.65
46129;BME280;31860;45.186;5.790;2022-10-31T13:46:44;99222.00;;;23.67;52.03
46129;BME280;31860;45.186;5.790;2022-10-31T13:54:37;99209.66;;;23.48;52.46
46129;BME280;31860;45.186;5.790;2022-10-31T13:57:07;99205.34;;;23.46;52.15
46129;BME280;31860;45.186;5.790;2022-10-31T13:59:47;99208.25;;;23.41;52.51
46129;BME280;31860;45.186;5.790;2022-10-31T14:02:26;99211.16;;;23.37;52.11
46129;BME280;31860;45.186;5.790;2022-10-31T14:05:05;99213.91;;;23.35;52.48
46129;BME280;31860;45.186;5.790;2022-10-31T14:07:32;99197.19;;;23.32;52.89
46129;BME280;31860;45.186;5.790;2022-10-31T14:10:45;99209.78;;;23.28;52.73
46129;BME280;31860;45.186;5.790;2022-10-31T14:12:47;99201.94;;;23.25;53.10
46129;BME280;31860;45.186;5.790;2022-10-31T14:15:21;99205.69;;;23.21;53.03
46129;BME280;31860;45.186;5.790;2022-10-31T14:17:55;99199.66;;;23.18;53.31
46129;BME280;31860;45.186;5.790;2022-10-31T14:20:36;99199.81;;;23.15;53.24
46129;BME280;31860;45.186;5.790;2022-10-31T14:26:29;99204.84;;;23.04;53.66
46129;BME280;31860;45.186;5.790;2022-10-31T14:28:59;99201.53;;;22.99;54.20
46129;BME280;31860;45.186;5.790;2022-10-31T14:31:45;99194.78;;;22.92;54.41
46129;BME280;31860;45.186;5.790;2022-10-31T14:51:09;99191.84;;;22.62;56.07
46129;BME280;31860;45.186;5.790;2022-10-31T14:53:50;99202.56;;;22.61;56.10
46129;BME280;31860;45.186;5.790;2022-10-31T14:56:29;99196.53;;;22.55;56.57
46129;BME280;31860;45.186;5.790;2022-10-31T14:58:59;99191.38;;;22.52;57.03
46129;BME280;31860;45.186;5.790;2022-10-31T15:01:31;99188.94;;;22.48;57.16
46129;BME280;31860;45.186;5.790;2022-10-31T15:04:05;99185.72;;;22.41;57.42
46129;BME280;31860;45.186;5.790;2022-10-31T15:06:44;99177.94;;;22.37;57.59
46129;BME280;31860;45.186;5.790;2022-10-31T15:11:47;99170.41;;;22.28;57.50
46129;BME280;31860;45.186;5.790;2022-10-31T15:14:23;99181.25;;;22.23;58.08
46129;BME280;31860;45.186;5.790;2022-10-31T15:16:49;99179.63;;;22.21;57.92
46129;BME280;31860;45.186;5.790;2022-10-31T15:19:20;99170.03;;;22.17;58.37
46129;BME280;31860;45.186;5.790;2022-10-31T15:21:46;99174.66;;;22.13;58.46
46129;BME280;31860;45.186;5.790;2022-10-31T15:24:14;99173.84;;;22.11;58.79
46129;BME280;31860;45.186;5.790;2022-10-31T15:26:46;99187.28;;;22.08;58.68